Time;durP1;ratioP1;P1;durP2;ratioP2;P2;SDS_P1;SDS_P2;PMS_P1;PMS_P2;Temp;Humidity;BMP_temperature;BMP_pressure;BME280_temperature;BME280_humidity;BME280_pressure;Samples;Min_cycle;Max_cycle;Signal;HPM_P1;HPM_P2
2021/08/20 00:01:58;;;;;;;5.53;2.63;;;19.90;81.50;;;;;;4936528;29;20377;-84
2021/08/20 00:04:23;;;;;;;5.55;2.80;;;19.90;81.60;;;;;;4936485;29;20067;-84
2021/08/20 00:06:49;;;;;;;6.03;2.97;;;19.90;81.60;;;;;;4916490;29;20524;-84
2021/08/20 00:09:15;;;;;;;8.10;3.08;;;19.80;81.60;;;;;;4901219;29;20036;-84
2021/08/20 00:11:41;;;;;;;6.90;2.90;;;19.80;81.70;;;;;;4917708;29;20159;-84
2021/08/20 00:14:08;;;;;;;8.30;3.47;;;19.80;81.80;;;;;;4932218;29;20115;-84
2021/08/20 00:16:34;;;;;;;6.32;2.90;;;19.80;81.70;;;;;;4931861;29;20045;-84
2021/08/20 00:19:01;;;;;;;6.57;3.10;;;19.80;81.80;;;;;;4917542;29;20024;-84
2021/08/20 00:21:28;;;;;;;6.93;2.97;;;19.80;81.90;;;;;;4916361;29;20039;-84
2021/08/20 00:23:53;;;;;;;8.40;3.10;;;19.80;82.00;;;;;;4917418;29;20117;-84
2021/08/20 00:26:20;;;;;;;6.82;2.95;;;19.80;82.00;;;;;;4917523;29;20028;-84
2021/08/20 00:28:46;;;;;;;8.18;3.15;;;19.80;82.00;;;;;;4927046;29;20389;-84
2021/08/20 00:31:12;;;;;;;7.00;3.10;;;19.80;82.00;;;;;;4903704;29;20037;-83
2021/08/20 00:33:37;;;;;;;6.70;3.15;;;19.80;82.00;;;;;;4904692;29;20041;-83
2021/08/20 00:36:06;;;;;;;6.43;3.03;;;19.80;82.10;;;;;;4888199;29;20020;-84
2021/08/20 00:38:37;;;;;;;7.00;3.42;;;19.80;82.00;;;;;;4915883;29;20032;-83
2021/08/20 00:41:03;;;;;;;6.95;2.92;;;19.70;82.00;;;;;;4917553;29;20167;-83
2021/08/20 00:43:29;;;;;;;6.70;3.00;;;19.70;82.10;;;;;;4917217;29;20497;-84
2021/08/20 00:45:57;;;;;;;6.60;3.10;;;19.70;82.10;;;;;;4917236;29;20500;-83
2021/08/20 00:48:23;;;;;;;6.20;2.95;;;19.70;82.10;;;;;;4917202;29;20035;-82
2021/08/20 00:50:55;;;;;;;6.30;3.05;;;19.70;82.10;;;;;;4931481;29;20028;-83
2021/08/20 00:53:21;;;;;;;5.43;2.70;;;19.70;82.10;;;;;;4917228;29;20028;-82
2021/08/20 00:55:46;;;;;;;7.40;2.85;;;19.60;82.10;;;;;;4932047;29;20040;-83
2021/08/20 00:58:12;;;;;;;6.50;2.97;;;19.70;82.10;;;;;;4917249;29;20032;-83
2021/08/20 01:00:40;;;;;;;5.70;2.90;;;19.70;82.10;;;;;;4916869;29;20042;-83
2021/08/20 01:03:06;;;;;;;7.93;3.03;;;19.70;82.20;;;;;;4900287;29;20036;-83
2021/08/20 01:05:32;;;;;;;6.82;2.85;;;19.60;82.10;;;;;;4925481;29;20139;-83
2021/08/20 01:08:00;;;;;;;5.32;2.65;;;19.70;82.20;;;;;;4935920;29;20095;-82
2021/08/20 01:10:29;;;;;;;6.35;2.83;;;19.60;82.00;;;;;;4935955;29;20061;-83
2021/08/20 01:12:55;;;;;;;7.93;3.03;;;19.50;82.00;;;;;;4935977;29;20032;-83
2021/08/20 01:15:20;;;;;;;5.80;2.75;;;19.60;82.20;;;;;;4935702;29;20047;-83
2021/08/20 01:17:46;;;;;;;7.35;3.17;;;19.60;82.30;;;;;;4936204;29;20071;-83
2021/08/20 01:20:13;;;;;;;6.85;3.30;;;19.60;82.40;;;;;;4919021;29;20126;-83
2021/08/20 01:22:39;;;;;;;6.03;2.95;;;19.60;82.40;;;;;;4918058;29;20496;-84
2021/08/20 01:25:05;;;;;;;6.30;2.83;;;19.50;82.30;;;;;;4918603;29;20058;-83
2021/08/20 01:27:33;;;;;;;6.55;3.10;;;19.50;82.40;;;;;;4918711;29;20167;-83
2021/08/20 01:29:59;;;;;;;6.40;3.10;;;19.50;82.50;;;;;;4935868;29;20043;-83
2021/08/20 01:32:28;;;;;;;6.80;3.00;;;19.50;82.50;;;;;;4918502;29;20407;-84
2021/08/20 01:34:53;;;;;;;6.45;3.03;;;19.60;82.40;;;;;;4935788;29;20124;-84
2021/08/20 01:37:19;;;;;;;5.22;2.72;;;19.50;82.30;;;;;;4903029;29;20476;-84
2021/08/20 01:39:47;;;;;;;6.05;2.70;;;19.50;82.30;;;;;;4918674;29;20078;-84
2021/08/20 01:42:13;;;;;;;5.93;2.85;;;19.50;82.40;;;;;;4919902;29;20054;-84
2021/08/20 01:44:41;;;;;;;7.10;3.05;;;19.50;82.50;;;;;;4922048;29;20040;-84
2021/08/20 01:47:10;;;;;;;6.80;3.03;;;19.50;82.50;;;;;;4922386;29;20111;-84
2021/08/20 01:49:37;;;;;;;6.55;3.13;;;19.40;82.50;;;;;;4922676;29;20031;-83
2021/08/20 01:52:02;;;;;;;7.07;3.30;;;19.50;82.60;;;;;;4930583;29;20063;-83
2021/08/20 01:54:28;;;;;;;7.65;3.13;;;19.40;82.60;;;;;;4945155;29;20036;-83
2021/08/20 01:56:54;;;;;;;5.57;3.00;;;19.40;82.70;;;;;;4923880;29;20023;-83
2021/08/20 01:59:19;;;;;;;6.50;2.97;;;19.40;82.70;;;;;;4938940;29;20392;-83
2021/08/20 02:01:45;;;;;;;6.82;3.17;;;19.40;82.80;;;;;;4921923;29;20028;-83
2021/08/20 02:04:10;;;;;;;7.50;3.28;;;19.40;82.80;;;;;;4921747;29;20071;-84
2021/08/20 02:06:36;;;;;;;7.32;2.92;;;19.40;82.80;;;;;;4938591;29;20055;-84
2021/08/20 02:09:02;;;;;;;10.18;3.03;;;19.30;82.70;;;;;;4938604;29;20023;-84
2021/08/20 02:11:28;;;;;;;7.00;2.90;;;19.40;82.70;;;;;;4921916;29;20114;-84
2021/08/20 02:13:53;;;;;;;6.80;3.10;;;19.30;82.60;;;;;;4938565;29;20070;-84
2021/08/20 02:16:19;;;;;;;8.85;3.00;;;19.40;82.80;;;;;;4921535;29;20058;-84
2021/08/20 02:18:47;;;;;;;7.30;2.97;;;19.40;82.80;;;;;;4921477;29;20083;-84
2021/08/20 02:21:12;;;;;;;7.00;3.30;;;19.40;82.90;;;;;;4938627;29;20055;-84
2021/08/20 02:23:38;;;;;;;6.10;3.05;;;19.40;82.90;;;;;;4921425;29;20062;-84
2021/08/20 02:26:05;;;;;;;8.63;3.20;;;19.40;82.90;;;;;;4938481;29;20468;-84
2021/08/20 02:28:31;;;;;;;7.57;3.15;;;19.40;82.90;;;;;;4905998;29;20034;-84
2021/08/20 02:30:56;;;;;;;6.18;2.95;;;19.30;82.80;;;;;;4921381;29;20115;-84
2021/08/20 02:33:22;;;;;;;7.82;3.25;;;19.40;82.90;;;;;;4905595;29;20032;-84
2021/08/20 02:35:48;;;;;;;7.13;3.28;;;19.30;82.90;;;;;;4920800;29;20034;-84
2021/08/20 02:38:13;;;;;;;6.55;3.08;;;19.30;82.90;;;;;;4938456;29;20035;-84
2021/08/20 02:40:39;;;;;;;6.50;2.97;;;19.30;83.50;;;;;;4921357;29;20127;-84
2021/08/20 02:43:05;;;;;;;8.27;3.20;;;19.30;82.90;;;;;;4921189;29;20035;-84
2021/08/20 02:45:30;;;;;;;7.60;3.28;;;19.30;82.80;;;;;;4920914;29;20043;-84
2021/08/20 02:47:56;;;;;;;7.95;3.20;;;19.30;82.80;;;;;;4937926;29;20024;-85
2021/08/20 02:50:21;;;;;;;7.82;3.30;;;19.20;82.70;;;;;;4920816;29;20395;-84
2021/08/20 02:52:47;;;;;;;7.82;3.47;;;19.20;83.50;;;;;;4937984;29;20038;-84
2021/08/20 02:55:13;;;;;;;7.95;3.30;;;19.30;82.90;;;;;;4937626;29;20490;-83
2021/08/20 02:57:42;;;;;;;8.30;3.30;;;19.20;82.90;;;;;;4921288;29;20039;-84
2021/08/20 03:00:08;;;;;;;7.18;3.20;;;19.20;82.90;;;;;;4921066;29;20036;-84
2021/08/20 03:02:34;;;;;;;9.75;3.15;;;19.20;83.00;;;;;;4937984;29;20024;-84
2021/08/20 03:05:00;;;;;;;7.22;3.28;;;19.20;83.00;;;;;;4920573;29;20399;-84
2021/08/20 03:07:25;;;;;;;6.05;3.00;;;19.10;83.10;;;;;;4937707;29;20087;-84
2021/08/20 03:09:53;;;;;;;6.75;3.20;;;19.20;83.20;;;;;;4937974;29;20034;-83
2021/08/20 03:12:19;;;;;;;10.10;3.70;;;19.10;83.10;;;;;;4940215;29;20062;-83
2021/08/20 03:14:44;;;;;;;9.75;3.60;;;19.10;83.20;;;;;;4941539;29;20027;-83
2021/08/20 03:17:10;;;;;;;7.32;3.42;;;19.10;83.20;;;;;;4908821;29;20075;-83
2021/08/20 03:19:35;;;;;;;6.43;3.17;;;19.20;83.20;;;;;;4907338;29;20032;-83
2021/08/20 03:22:03;;;;;;;7.20;3.22;;;19.10;83.10;;;;;;4937402;29;20111;-83
2021/08/20 03:24:29;;;;;;;7.28;3.03;;;19.10;83.10;;;;;;4937004;29;20047;-83
2021/08/20 03:26:55;;;;;;;8.32;3.30;;;19.10;83.10;;;;;;4937333;29;20036;-83
2021/08/20 03:29:20;;;;;;;7.55;3.03;;;19.10;83.20;;;;;;4937269;29;20036;-83
2021/08/20 03:31:48;;;;;;;7.03;3.20;;;19.00;83.20;;;;;;4904295;29;20043;-83
2021/08/20 03:34:14;;;;;;;7.75;3.10;;;19.10;83.30;;;;;;4920255;29;20059;-83
2021/08/20 03:36:40;;;;;;;7.40;3.53;;;19.00;83.30;;;;;;4937004;29;20496;-84
2021/08/20 03:39:05;;;;;;;6.68;3.58;;;19.00;83.40;;;;;;4920080;29;20027;-84
2021/08/20 03:41:31;;;;;;;7.57;3.10;;;19.00;83.40;;;;;;4920260;29;20047;-84
2021/08/20 03:43:56;;;;;;;8.07;3.30;;;19.10;83.50;;;;;;4919591;29;20034;-84
2021/08/20 03:46:22;;;;;;;6.78;3.15;;;19.10;83.50;;;;;;4936883;29;20483;-84
2021/08/20 03:48:49;;;;;;;7.38;3.35;;;19.10;83.50;;;;;;4919852;29;20035;-84
2021/08/20 03:51:15;;;;;;;6.90;3.20;;;19.00;83.40;;;;;;4904643;29;20035;-83
2021/08/20 03:53:41;;;;;;;7.05;3.47;;;19.00;83.40;;;;;;4919742;29;20498;-83
2021/08/20 03:56:06;;;;;;;7.57;3.28;;;19.10;83.40;;;;;;4904080;29;20032;-83
2021/08/20 03:58:32;;;;;;;6.72;3.38;;;19.10;83.50;;;;;;4936505;29;20051;-83
2021/08/20 04:00:58;;;;;;;6.82;3.28;;;19.00;83.50;;;;;;4919824;29;20063;-84
2021/08/20 04:03:30;;;;;;;7.00;3.28;;;19.00;83.50;;;;;;4936697;29;20039;-83
2021/08/20 04:05:59;;;;;;;8.07;3.70;;;19.00;83.50;;;;;;4915383;29;20127;-83
2021/08/20 04:08:26;;;;;;;6.90;3.30;;;19.10;83.50;;;;;;4932171;29;20094;-83
2021/08/20 04:10:55;;;;;;;7.18;3.30;;;19.00;83.60;;;;;;4917368;29;20048;-83
2021/08/20 04:13:23;;;;;;;9.20;3.53;;;19.10;83.70;;;;;;4916731;29;20091;-83
2021/08/20 04:15:49;;;;;;;6.97;3.33;;;19.00;83.60;;;;;;4932102;29;20037;-83
2021/08/20 04:18:15;;;;;;;7.80;3.60;;;19.00;83.70;;;;;;4916322;29;20043;-84
2021/08/20 04:20:42;;;;;;;7.43;3.42;;;19.00;83.60;;;;;;4900753;29;20032;-84
2021/08/20 04:23:08;;;;;;;8.90;3.80;;;19.10;83.70;;;;;;4917500;29;20099;-84
2021/08/20 04:25:34;;;;;;;6.85;3.40;;;19.10;83.70;;;;;;4916323;29;20068;-84
2021/08/20 04:28:02;;;;;;;6.65;3.20;;;19.10;83.70;;;;;;4916926;29;20123;-82
2021/08/20 04:30:29;;;;;;;7.53;3.40;;;19.10;83.70;;;;;;4920559;29;20024;-83
2021/08/20 04:32:57;;;;;;;7.40;3.67;;;19.10;83.70;;;;;;4920203;29;20043;-83
2021/08/20 04:35:24;;;;;;;8.27;4.25;;;19.10;83.80;;;;;;4923563;29;20035;-83
2021/08/20 04:37:50;;;;;;;9.90;3.70;;;19.10;83.80;;;;;;4956023;29;20381;-81
2021/08/20 04:40:16;;;;;;;8.82;3.88;;;19.10;83.80;;;;;;4921142;29;20036;-84
2021/08/20 04:42:42;;;;;;;8.38;3.67;;;19.10;83.90;;;;;;4919554;29;20035;-83
2021/08/20 04:45:08;;;;;;;7.55;3.55;;;19.10;83.80;;;;;;4916887;29;20670;-83
2021/08/20 04:47:34;;;;;;;6.82;3.42;;;19.10;83.80;;;;;;4917264;29;20076;-83
2021/08/20 04:50:08;;;;;;;8.20;3.88;;;19.10;83.80;;;;;;4915872;29;20023;-83
2021/08/20 04:52:37;;;;;;;8.07;3.73;;;19.20;83.80;;;;;;4915927;29;20036;-84
2021/08/20 04:55:04;;;;;;;8.18;3.70;;;19.20;83.80;;;;;;4917146;29;20039;-84
2021/08/20 04:57:29;;;;;;;6.88;3.53;;;19.20;83.80;;;;;;4915842;29;20032;-83
2021/08/20 04:59:58;;;;;;;7.47;3.60;;;19.20;83.80;;;;;;4915767;29;20397;-83
2021/08/20 05:02:26;;;;;;;8.23;3.42;;;19.30;83.80;;;;;;4900901;29;20040;-84
2021/08/20 05:04:52;;;;;;;9.02;3.65;;;19.30;83.80;;;;;;4916957;29;20044;-83
2021/08/20 05:07:19;;;;;;;8.88;3.50;;;19.30;83.70;;;;;;4918961;29;20035;-83
2021/08/20 05:09:45;;;;;;;7.28;3.30;;;19.30;83.70;;;;;;4903134;29;20036;-83
2021/08/20 05:12:12;;;;;;;7.93;3.70;;;19.30;83.70;;;;;;4919000;29;20032;-84
2021/08/20 05:14:37;;;;;;;7.32;3.42;;;19.40;83.80;;;;;;4918758;29;20024;-83
2021/08/20 05:17:09;;;;;;;8.18;3.53;;;19.40;83.90;;;;;;4936900;29;20038;-82
2021/08/20 05:19:39;;;;;;;7.68;3.60;;;19.40;83.80;;;;;;4939357;29;20484;-82
2021/08/20 05:22:05;;;;;;;10.05;3.88;;;19.40;83.80;;;;;;4922669;29;20062;-83
2021/08/20 05:24:31;;;;;;;8.30;3.30;;;19.50;83.80;;;;;;4939513;29;20464;-83
2021/08/20 05:26:56;;;;;;;7.70;3.55;;;19.50;83.80;;;;;;4939691;29;20039;-82
2021/08/20 05:29:22;;;;;;;7.25;3.40;;;19.60;83.80;;;;;;4922556;29;20036;-83
2021/08/20 05:31:47;;;;;;;7.82;3.38;;;19.60;83.80;;;;;;4922168;29;20038;-85
2021/08/20 05:34:13;;;;;;;8.20;3.50;;;19.60;83.70;;;;;;4938204;29;20113;-85
2021/08/20 05:36:44;;;;;;;6.82;3.30;;;19.70;83.60;;;;;;4939493;29;20409;-80
2021/08/20 05:39:16;;;;;;;7.88;3.47;;;19.70;83.60;;;;;;4939920;29;20046;-81
2021/08/20 05:41:42;;;;;;;7.55;3.47;;;19.70;83.70;;;;;;4939513;29;20024;-81
2021/08/20 05:44:07;;;;;;;9.38;3.60;;;19.70;83.70;;;;;;4922165;29;20083;-81
2021/08/20 05:46:35;;;;;;;10.38;3.60;;;19.80;83.80;;;;;;4922738;29;20040;-80
2021/08/20 05:49:05;;;;;;;9.52;3.47;;;19.80;83.70;;;;;;4939306;29;20032;-81
2021/08/20 05:51:32;;;;;;;6.90;3.40;;;19.90;83.50;;;;;;4921714;29;20082;-81
2021/08/20 05:54:00;;;;;;;8.20;3.65;;;19.90;83.60;;;;;;4939099;29;20107;-79
2021/08/20 05:56:26;;;;;;;8.48;3.58;;;20.00;83.60;;;;;;4922153;29;20028;-80
2021/08/20 05:58:52;;;;;;;8.50;3.78;;;20.00;83.60;;;;;;4939658;29;20035;-79
2021/08/20 06:01:21;;;;;;;7.45;3.70;;;20.10;83.80;;;;;;4938989;29;20031;-79
2021/08/20 06:03:47;;;;;;;7.95;3.55;;;20.10;83.60;;;;;;4938978;29;20102;-80
2021/08/20 06:06:14;;;;;;;7.90;3.58;;;20.20;83.50;;;;;;4938244;29;20055;-78
2021/08/20 06:08:47;;;;;;;9.25;3.50;;;20.20;83.50;;;;;;4938920;29;20031;-79
2021/08/20 06:11:15;;;;;;;7.50;3.63;;;20.30;83.50;;;;;;4938648;29;20111;-80
2021/08/20 06:13:43;;;;;;;7.95;3.63;;;20.30;83.40;;;;;;4922146;29;20032;-82
2021/08/20 06:16:08;;;;;;;7.82;3.50;;;20.40;83.30;;;;;;4938709;29;20140;-79
2021/08/20 06:18:34;;;;;;;9.18;3.45;;;20.40;83.50;;;;;;4938573;29;20101;-83
2021/08/20 06:21:03;;;;;;;8.15;3.40;;;20.40;83.60;;;;;;4906164;29;20456;-83
2021/08/20 06:23:28;;;;;;;8.95;3.83;;;20.60;83.80;;;;;;4938348;29;20063;-83
2021/08/20 06:25:54;;;;;;;8.38;4.10;;;20.70;83.60;;;;;;4921204;29;20063;-83
2021/08/20 06:28:22;;;;;;;8.30;3.60;;;20.80;83.50;;;;;;4938315;29;20024;-83
2021/08/20 06:30:51;;;;;;;9.68;3.80;;;20.90;83.90;;;;;;4938320;29;20031;-82
2021/08/20 06:33:20;;;;;;;8.30;4.05;;;20.90;83.10;;;;;;4938293;29;20111;-82
2021/08/20 06:35:51;;;;;;;9.40;3.45;;;21.00;83.10;;;;;;4921208;29;20035;-82
2021/08/20 06:38:17;;;;;;;8.40;3.75;;;21.10;83.10;;;;;;4938350;29;20024;-83
2021/08/20 06:40:43;;;;;;;9.32;4.30;;;21.20;82.80;;;;;;4920889;29;20038;-82
2021/08/20 06:43:09;;;;;;;9.13;4.90;;;21.30;82.90;;;;;;4938304;29;20109;-84
2021/08/20 06:45:34;;;;;;;8.15;4.00;;;21.40;83.30;;;;;;4921036;29;20040;-82
2021/08/20 06:48:00;;;;;;;10.45;4.18;;;21.40;82.40;;;;;;4937985;29;20039;-83
2021/08/20 06:50:26;;;;;;;9.57;4.22;;;21.50;82.30;;;;;;4938090;29;20043;-83
2021/08/20 06:52:51;;;;;;;9.57;4.22;;;21.60;82.40;;;;;;4920642;29;20034;-81
2021/08/20 06:55:20;;;;;;;9.77;4.15;;;21.70;82.30;;;;;;4938216;29;20447;-83
2021/08/20 06:57:48;;;;;;;9.43;3.65;;;21.80;82.20;;;;;;4937916;29;20175;-82
2021/08/20 07:00:14;;;;;;;7.88;3.47;;;21.90;82.20;;;;;;4921063;29;20086;-82
2021/08/20 07:02:47;;;;;;;8.13;3.63;;;22.00;82.10;;;;;;4937584;29;20472;-82
2021/08/20 07:05:14;;;;;;;8.52;3.78;;;22.20;81.70;;;;;;4904738;29;20056;-83
2021/08/20 07:07:43;;;;;;;7.78;3.35;;;22.20;81.40;;;;;;4937641;29;20148;-83
2021/08/20 07:10:14;;;;;;;8.00;3.25;;;22.30;81.20;;;;;;4937628;29;20035;-82
2021/08/20 07:12:40;;;;;;;6.78;3.22;;;22.30;81.20;;;;;;4937315;29;20388;-82
2021/08/20 07:15:08;;;;;;;7.60;3.42;;;22.50;81.30;;;;;;4920291;29;20040;-82
2021/08/20 07:17:36;;;;;;;6.57;3.03;;;22.60;81.20;;;;;;4920805;29;20127;-83
2021/08/20 07:20:11;;;;;;;6.85;3.05;;;22.60;80.90;;;;;;4920874;29;20032;-83
2021/08/20 07:22:37;;;;;;;8.73;3.40;;;22.70;80.80;;;;;;4921059;29;20027;-83
2021/08/20 07:25:03;;;;;;;7.30;3.47;;;22.80;80.70;;;;;;4920356;29;20036;-83
2021/08/20 07:27:29;;;;;;;7.10;2.92;;;23.00;80.70;;;;;;4937669;29;20034;-83
2021/08/20 07:29:57;;;;;;;8.77;3.35;;;23.10;80.40;;;;;;4920090;29;20100;-83
2021/08/20 07:32:23;;;;;;;6.78;2.95;;;23.30;80.60;;;;;;4937164;29;20031;-83
2021/08/20 07:34:48;;;;;;;5.28;2.83;;;23.40;80.50;;;;;;4937269;29;20099;-82
2021/08/20 07:37:14;;;;;;;5.57;2.80;;;23.60;80.40;;;;;;4936849;29;20024;-82
2021/08/20 07:39:42;;;;;;;6.03;2.80;;;23.70;80.00;;;;;;4919578;29;20544;-82
2021/08/20 07:42:13;;;;;;;6.30;2.90;;;23.90;79.90;;;;;;4920107;29;20559;-82
2021/08/20 07:44:38;;;;;;;5.20;2.63;;;24.00;79.60;;;;;;4937142;29;20051;-83
2021/08/20 07:47:04;;;;;;;6.63;3.22;;;24.10;79.10;;;;;;4936980;29;20027;-83
2021/08/20 07:49:30;;;;;;;5.35;2.67;;;24.20;78.40;;;;;;4904050;29;20024;-83
2021/08/20 07:51:57;;;;;;;5.85;2.70;;;24.30;78.50;;;;;;4936535;29;20031;-83
2021/08/20 07:54:24;;;;;;;6.32;2.80;;;24.40;78.70;;;;;;4919730;29;20020;-83
2021/08/20 07:57:00;;;;;;;5.05;2.40;;;24.50;78.30;;;;;;4936671;29;20110;-83
2021/08/20 07:59:26;;;;;;;4.43;2.50;;;24.60;78.00;;;;;;4919859;29;20054;-82
2021/08/20 08:01:52;;;;;;;5.93;2.70;;;24.70;77.70;;;;;;4903891;29;20035;-83
2021/08/20 08:04:18;;;;;;;5.70;2.60;;;24.80;77.80;;;;;;4919540;29;20039;-83
2021/08/20 08:06:43;;;;;;;5.75;2.70;;;24.90;77.20;;;;;;4916282;29;20048;-83
2021/08/20 08:09:10;;;;;;;8.00;2.80;;;24.80;76.40;;;;;;4931966;29;20021;-81
2021/08/20 08:11:41;;;;;;;4.82;2.50;;;24.70;75.20;;;;;;4932200;29;20492;-81
2021/08/20 08:14:12;;;;;;;5.53;2.67;;;24.50;74.60;;;;;;4916704;29;20044;-81
2021/08/20 08:16:42;;;;;;;4.80;2.58;;;24.20;74.10;;;;;;4917438;29;20050;-82
2021/08/20 08:19:08;;;;;;;5.82;2.60;;;24.00;75.30;;;;;;4931763;29;20115;-81
2021/08/20 08:21:34;;;;;;;7.32;3.28;;;23.80;75.30;;;;;;4916564;29;20036;-82
2021/08/20 08:24:01;;;;;;;5.90;3.03;;;23.80;75.50;;;;;;4932318;29;20039;-82
2021/08/20 08:26:26;;;;;;;7.95;3.13;;;23.70;75.80;;;;;;4917178;29;20051;-82
2021/08/20 08:28:56;;;;;;;6.88;2.90;;;23.70;76.00;;;;;;4917398;29;20032;-83
2021/08/20 08:31:23;;;;;;;6.97;2.90;;;23.70;75.90;;;;;;4931995;29;20035;-82
2021/08/20 08:33:51;;;;;;;5.45;2.40;;;23.70;75.50;;;;;;4917514;29;20555;-83
2021/08/20 08:36:18;;;;;;;5.85;2.75;;;23.60;75.70;;;;;;4919166;29;20056;-83
2021/08/20 08:38:43;;;;;;;5.32;2.45;;;23.70;76.10;;;;;;4916224;29;20028;-83
2021/08/20 08:41:10;;;;;;;6.50;2.80;;;23.80;75.90;;;;;;4915888;29;20028;-84
2021/08/20 08:43:35;;;;;;;6.18;2.72;;;23.80;76.20;;;;;;4916072;29;20070;-83
2021/08/20 08:46:09;;;;;;;4.95;2.20;;;23.90;75.40;;;;;;4916074;29;20071;-83
2021/08/20 08:48:40;;;;;;;5.38;2.53;;;23.90;75.30;;;;;;4915856;29;20046;-83
2021/08/20 08:51:09;;;;;;;6.30;2.80;;;24.20;75.60;;;;;;4916239;29;20510;-83
2021/08/20 08:53:34;;;;;;;6.07;2.75;;;24.30;74.50;;;;;;4919256;29;20035;-83
2021/08/20 08:56:03;;;;;;;5.43;2.58;;;24.50;74.40;;;;;;4920954;29;20040;-83
2021/08/20 08:58:28;;;;;;;4.97;2.45;;;24.50;73.80;;;;;;4920923;29;20032;-82
2021/08/20 09:00:54;;;;;;;4.38;2.13;;;24.50;73.20;;;;;;4919648;29;20043;-82
2021/08/20 09:03:28;;;;;;;6.20;2.80;;;24.60;73.80;;;;;;4919510;29;20023;-82
2021/08/20 09:05:58;;;;;;;;;;;24.70;73.60;;;;;;4919766;29;20055;-82
2021/08/20 09:08:27;;;;;;;4.35;2.33;;;24.80;74.10;;;;;;4903504;29;19957;-82
2021/08/20 09:10:58;;;;;;;6.07;2.50;;;24.90;73.00;;;;;;4903684;29;20025;-82
2021/08/20 09:13:27;;;;;;;5.82;2.58;;;25.10;73.00;;;;;;4920660;29;20036;-83
2021/08/20 09:16:13;;;;;;;5.47;2.47;;;25.30;72.40;;;;;;4919727;29;20024;-83
2021/08/20 09:18:42;;;;;;;5.45;2.20;;;25.40;72.00;;;;;;4919332;29;20463;-82
2021/08/20 09:21:13;;;;;;;4.63;2.30;;;25.60;72.30;;;;;;4920532;29;20036;-82
2021/08/20 09:23:41;;;;;;;5.85;2.53;;;25.70;72.00;;;;;;4919109;29;20039;-82
2021/08/20 09:26:07;;;;;;;4.47;2.28;;;26.00;72.50;;;;;;4919377;29;20044;-82
2021/08/20 09:28:37;;;;;;;3.72;2.10;;;26.30;72.50;;;;;;4922320;29;20392;-83
2021/08/20 09:31:10;;;;;;;5.85;2.40;;;26.60;72.40;;;;;;4927189;29;20036;-82
2021/08/20 09:33:51;;;;;;;5.88;2.45;;;26.80;72.00;;;;;;4930017;29;20024;-82
2021/08/20 09:36:25;;;;;;;5.00;2.35;;;27.20;71.00;;;;;;4927434;29;20384;-83
2021/08/20 09:38:57;;;;;;;7.18;2.50;;;27.40;70.70;;;;;;4920009;29;20091;-82
2021/08/20 09:41:28;;;;;;;3.83;2.00;;;27.80;69.70;;;;;;4919192;29;20029;-83
2021/08/20 09:44:01;;;;;;;3.70;1.77;;;28.00;69.60;;;;;;4919898;29;20380;-83
2021/08/20 09:46:52;;;;;;;2.50;1.55;;;28.20;67.90;;;;;;4935004;29;20127;-83
2021/08/20 09:49:18;;;;;;;5.05;2.40;;;28.40;67.40;;;;;;4920134;29;20385;-81
2021/08/20 09:51:58;;;;;;;4.32;2.45;;;28.50;67.50;;;;;;4919211;29;20039;-82
2021/08/20 09:54:30;;;;;;;4.65;2.30;;;28.60;67.20;;;;;;4903229;29;20063;-82
2021/08/20 09:56:56;;;;;;;5.55;2.40;;;28.60;65.70;;;;;;4934539;29;20024;-82
2021/08/20 09:59:27;;;;;;;3.72;2.10;;;28.40;66.10;;;;;;4920198;29;20028;-84
2021/08/20 10:01:54;;;;;;;4.95;2.50;;;28.30;65.20;;;;;;4920272;29;20028;-83
2021/08/20 10:04:26;;;;;;;6.03;2.50;;;28.10;64.90;;;;;;4919303;29;20020;-83
2021/08/20 10:06:57;;;;;;;5.75;2.25;;;27.90;64.80;;;;;;4933884;29;20052;-84
2021/08/20 10:09:25;;;;;;;5.30;2.47;;;27.80;64.20;;;;;;4934581;29;20028;-83
2021/08/20 10:11:58;;;;;;;4.85;2.20;;;27.60;64.10;;;;;;4919754;29;20032;-83
2021/08/20 10:14:25;;;;;;;5.65;2.60;;;27.60;64.80;;;;;;4918347;29;20079;-83
2021/08/20 10:16:51;;;;;;;4.72;2.38;;;27.90;64.80;;;;;;4934276;29;20548;-83
2021/08/20 10:19:19;;;;;;;6.32;2.63;;;28.00;65.80;;;;;;4919509;29;20024;-83
2021/08/20 10:21:45;;;;;;;4.80;2.33;;;28.20;65.40;;;;;;4934108;29;20032;-83
2021/08/20 10:24:13;;;;;;;5.07;2.30;;;28.40;64.40;;;;;;4919330;29;20459;-83
2021/08/20 10:26:42;;;;;;;4.15;2.17;;;28.50;64.20;;;;;;4919683;29;20039;-83
2021/08/20 10:29:11;;;;;;;5.88;2.45;;;28.60;63.50;;;;;;4919410;29;20051;-83
2021/08/20 10:31:39;;;;;;;5.38;2.70;;;28.60;63.00;;;;;;4919650;29;20107;-83
2021/08/20 10:34:30;;;;;;;5.97;2.58;;;28.70;63.60;;;;;;4919014;29;20024;-80
2021/08/20 10:37:24;;;;;;;4.82;2.30;;;28.70;64.30;;;;;;4919151;29;20104;-80
2021/08/20 10:39:51;;;;;;;;;;;28.90;64.80;;;;;;4919607;29;20036;-80
2021/08/20 10:42:19;;;;;;;5.28;2.42;;;29.10;65.90;;;;;;4919100;29;19914;-80
2021/08/20 10:44:51;;;;;;;5.97;2.70;;;29.30;65.70;;;;;;4919492;29;20123;-80
2021/08/20 10:47:36;;;;;;;5.32;2.70;;;29.50;64.60;;;;;;4918811;29;20027;-80
2021/08/20 10:50:10;;;;;;;5.43;2.72;;;29.60;63.40;;;;;;4933845;29;20028;-80
2021/08/20 10:52:44;;;;;;;4.40;2.38;;;29.60;63.40;;;;;;4918850;29;20036;-80
2021/08/20 10:55:15;;;;;;;;;;;29.70;62.40;;;;;;4919074;29;20488;-80
2021/08/20 10:57:44;;;;;;;4.90;2.40;;;29.60;63.80;;;;;;4918667;29;20371;-80
2021/08/20 11:00:19;;;;;;;4.57;2.50;;;29.50;61.20;;;;;;4933347;29;20088;-81
2021/08/20 11:02:53;;;;;;;4.75;2.30;;;29.30;61.40;;;;;;4918776;29;20028;-80
2021/08/20 11:05:48;;;;;;;5.90;2.70;;;29.00;61.10;;;;;;4923127;29;20044;-81
2021/08/20 11:08:33;;;;;;;5.20;2.35;;;28.70;61.40;;;;;;4937438;29;20042;-81
2021/08/20 11:11:05;;;;;;;4.30;2.20;;;28.50;61.90;;;;;;4920461;29;20024;-81
2021/08/20 11:13:31;;;;;;;4.50;2.47;;;28.30;61.70;;;;;;4937510;29;20031;-81
2021/08/20 11:15:58;;;;;;;6.30;2.65;;;28.40;64.10;;;;;;4936514;29;20087;-81
2021/08/20 11:18:59;;;;;;;4.60;2.08;;;28.90;65.40;;;;;;4937099;29;20071;-81
2021/08/20 11:21:46;;;;;;;4.13;2.20;;;29.90;65.20;;;;;;4937297;29;20060;-81
2021/08/20 11:24:20;;;;;;;4.38;2.40;;;31.10;64.10;;;;;;4937246;29;20103;-82
2021/08/20 11:26:48;;;;;;;;;;;32.30;65.10;;;;;;4937689;29;20044;-82
2021/08/20 11:29:21;;;;;;;5.38;2.60;;;33.50;64.60;;;;;;4920473;29;19906;-82
2021/08/20 11:31:47;;;;;;;3.75;2.10;;;34.30;61.90;;;;;;4936985;29;20484;-82
2021/08/20 11:34:20;;;;;;;3.47;2.10;;;35.00;61.10;;;;;;4937108;29;20028;-82
2021/08/20 11:37:00;;;;;;;3.20;1.95;;;35.50;59.70;;;;;;4937029;29;20027;-83
2021/08/20 11:39:31;;;;;;;4.93;2.33;;;35.50;57.40;;;;;;4936914;29;20091;-83
2021/08/20 11:42:12;;;;;;;4.75;2.00;;;35.20;56.60;;;;;;4936735;29;20099;-83
2021/08/20 11:44:41;;;;;;;3.30;1.77;;;34.70;55.80;;;;;;4919787;29;20059;-82
2021/08/20 11:47:07;;;;;;;2.83;1.77;;;34.20;54.90;;;;;;4920635;29;20494;-83
2021/08/20 11:49:36;;;;;;;3.28;2.20;;;33.60;54.30;;;;;;4919487;29;20122;-82
2021/08/20 11:52:09;;;;;;;4.00;2.10;;;33.00;54.70;;;;;;4919904;29;20028;-82
2021/08/20 11:54:36;;;;;;;5.43;2.33;;;32.50;55.50;;;;;;4936775;29;20019;-83
2021/08/20 11:57:04;;;;;;;3.33;1.98;;;32.10;55.30;;;;;;4919445;29;20365;-82
2021/08/20 11:59:30;;;;;;;4.65;2.15;;;31.60;55.20;;;;;;4936526;29;20083;-82
2021/08/20 12:02:00;;;;;;;4.25;2.20;;;31.30;55.60;;;;;;4936677;29;20384;-82
2021/08/20 12:04:26;;;;;;;3.58;2.10;;;31.00;55.70;;;;;;4920094;29;20042;-83
2021/08/20 12:06:52;;;;;;;4.70;2.58;;;30.90;56.40;;;;;;4918990;29;20051;-83
2021/08/20 12:09:32;;;;;;;4.32;2.38;;;30.70;56.70;;;;;;4919475;29;20086;-81
2021/08/20 12:12:33;;;;;;;4.47;2.50;;;31.00;59.00;;;;;;4919295;29;20042;-81
2021/08/20 12:15:00;;;;;;;4.80;2.55;;;31.80;59.60;;;;;;4909151;29;20494;-82
2021/08/20 12:17:31;;;;;;;4.22;2.40;;;32.40;58.40;;;;;;4919549;29;20607;-81
2021/08/20 12:20:00;;;;;;;3.33;2.17;;;33.70;60.50;;;;;;4919168;29;20032;-82
2021/08/20 12:22:39;;;;;;;2.75;2.10;;;34.80;59.70;;;;;;4936374;29;20106;-82
2021/08/20 12:25:24;;;;;;;3.97;2.17;;;36.10;57.70;;;;;;4919391;29;20353;-82
2021/08/20 12:27:51;;;;;;;1.63;1.48;;;37.10;56.00;;;;;;4936268;29;20380;-81
2021/08/20 12:30:28;;;;;;;3.60;2.20;;;37.90;53.70;;;;;;4919726;29;20171;-81
2021/08/20 12:32:59;;;;;;;3.60;2.17;;;38.50;52.20;;;;;;4919195;29;20023;-83
2021/08/20 12:35:28;;;;;;;3.92;2.15;;;39.10;51.50;;;;;;4919376;29;20028;-83
2021/08/20 12:38:20;;;;;;;3.33;2.10;;;39.90;51.50;;;;;;4919461;29;20024;-83
2021/08/20 12:41:13;;;;;;;2.47;1.65;;;40.60;52.20;;;;;;4919489;29;20032;-83
2021/08/20 12:43:49;;;;;;;;;;;;;;;;;;;;;
2021/08/20 12:46:34;;;;;;;3.50;2.35;;;42.40;47.40;;;;;;4935858;29;20047;-83
2021/08/20 12:49:16;;;;;;;4.15;2.10;;;42.10;47.20;;;;;;4936371;29;20476;-82
2021/08/20 12:51:52;;;;;;;2.58;1.80;;;41.40;44.00;;;;;;4889591;29;20052;-82
2021/08/20 12:54:21;;;;;;;4.15;1.90;;;40.00;42.20;;;;;;4919442;29;20055;-83
2021/08/20 12:56:48;;;;;;;2.90;1.92;;;38.70;43.30;;;;;;4919040;29;20028;-82